Terminal Aerodrome Forecast
Issued by NWS

Home | Current Version | Previous Version | Text Only | Print | Product List | Glossary On
Versions: 1 2 3 4 5 6 7 8 9 10 11 12
000
FTAK31 PAFA 252346
TAFAOR
TAF
PAOR 252346Z 2600/2624 VRB04KT P6SM SCT070
     FM260800 VRB03KT P6SM VCSH BKN060
     FM262100 30006KT P6SM VCTS OVC040CB=

USA.gov is the U.S. government's official web portal to all federal, state and local government web resources and services.